createdAt,value
2023-03-29T00:00:52.867Z,95130.00
2023-03-29T00:01:52.893Z,95137.00
2023-03-29T00:02:52.944Z,95141.00
2023-03-29T00:03:53.013Z,95139.00
2023-03-29T00:04:52.862Z,95139.00
2023-03-29T00:05:52.891Z,95141.00
2023-03-29T00:06:52.867Z,95141.00
2023-03-29T00:07:52.870Z,95143.00
2023-03-29T00:08:52.876Z,95143.00
2023-03-29T00:09:52.886Z,95143.00
2023-03-29T00:10:52.871Z,95145.00
2023-03-29T00:11:52.871Z,95137.00
2023-03-29T00:12:52.904Z,95126.00
2023-03-29T00:13:52.888Z,95120.00
2023-03-29T00:14:52.869Z,95122.00
2023-03-29T00:15:52.893Z,95122.00
2023-03-29T00:16:52.931Z,95126.00
2023-03-29T00:17:52.931Z,95128.00
2023-03-29T00:18:52.906Z,95128.00
2023-03-29T00:19:52.887Z,95126.00
2023-03-29T00:20:52.892Z,95132.00
2023-03-29T00:21:52.934Z,95133.00
2023-03-29T00:22:52.907Z,95137.00
2023-03-29T00:23:52.900Z,95139.00
2023-03-29T00:24:52.913Z,95143.00
2023-03-29T00:25:52.926Z,95145.00
2023-03-29T00:26:52.914Z,95143.00
2023-03-29T00:27:52.909Z,95143.00
2023-03-29T00:28:52.910Z,95143.00
2023-03-29T00:29:52.911Z,95143.00
2023-03-29T00:30:52.965Z,95147.00
2023-03-29T00:31:53.052Z,95153.00
2023-03-29T00:32:52.974Z,95165.00
2023-03-29T00:33:52.955Z,95167.00
2023-03-29T00:34:52.951Z,95167.00
2023-03-29T00:35:53.003Z,95163.00
2023-03-29T00:36:53.032Z,95165.00
2023-03-29T00:37:53.086Z,95171.00
2023-03-29T00:38:52.954Z,95175.00
2023-03-29T00:39:52.966Z,95181.00
2023-03-29T00:40:52.939Z,95181.00
2023-03-29T00:41:53.004Z,95179.00
2023-03-29T00:42:52.944Z,95177.00
2023-03-29T00:43:52.965Z,95179.00
2023-03-29T00:44:52.942Z,95181.00
2023-03-29T00:45:52.972Z,95185.00
2023-03-29T00:46:52.978Z,95185.00
2023-03-29T00:47:52.986Z,95181.00
2023-03-29T00:48:52.934Z,95173.00
2023-03-29T00:49:52.941Z,95177.00
2023-03-29T00:50:52.952Z,95181.00
2023-03-29T00:51:52.960Z,95185.00
2023-03-29T00:52:53.006Z,95186.00
2023-03-29T00:53:53.065Z,95188.00
2023-03-29T00:54:53.128Z,95192.00
2023-03-29T00:55:53.133Z,95194.00
2023-03-29T00:56:53.178Z,95198.00
2023-03-29T00:57:53.138Z,95204.00
2023-03-29T00:58:53.152Z,95208.00
2023-03-29T00:59:53.141Z,95214.00
2023-03-29T01:00:53.142Z,95212.00
2023-03-29T01:01:53.152Z,95210.00
2023-03-29T01:02:53.239Z,95206.00
2023-03-29T01:03:53.251Z,95204.00
2023-03-29T01:04:53.141Z,95202.00
2023-03-29T01:05:53.141Z,95200.00
2023-03-29T01:06:53.206Z,95202.00
2023-03-29T01:07:53.142Z,95202.00
2023-03-29T01:08:53.137Z,95200.00
2023-03-29T01:09:53.136Z,95202.00
2023-03-29T01:10:53.124Z,95200.00
2023-03-29T01:11:53.132Z,95200.00
2023-03-29T01:12:53.120Z,95194.00
2023-03-29T01:13:53.120Z,95190.00
2023-03-29T01:14:53.122Z,95190.00
2023-03-29T01:15:53.125Z,95190.00
2023-03-29T01:16:53.126Z,95192.00
2023-03-29T01:17:53.142Z,95194.00
2023-03-29T01:18:53.101Z,95192.00
2023-03-29T01:19:53.128Z,95194.00
2023-03-29T01:20:53.107Z,95194.00
2023-03-29T01:21:53.097Z,95196.00
2023-03-29T01:22:53.126Z,95200.00
2023-03-29T01:23:53.107Z,95204.00
2023-03-29T01:24:53.093Z,95208.00
2023-03-29T01:25:53.118Z,95204.00
2023-03-29T01:26:53.130Z,95200.00
2023-03-29T01:27:53.123Z,95196.00
2023-03-29T01:28:53.122Z,95196.00
2023-03-29T01:29:53.114Z,95192.00
2023-03-29T01:30:53.106Z,95192.00
2023-03-29T01:31:53.112Z,95192.00
2023-03-29T01:32:53.174Z,95192.00
2023-03-29T01:33:53.134Z,95194.00
2023-03-29T01:34:53.176Z,95194.00
2023-03-29T01:35:53.232Z,95196.00
2023-03-29T01:36:53.281Z,95196.00
2023-03-29T01:37:53.334Z,95194.00
2023-03-29T01:38:53.379Z,95194.00
2023-03-29T01:39:53.425Z,95194.00
2023-03-29T01:40:53.458Z,95194.00
2023-03-29T01:41:53.509Z,95194.00
2023-03-29T01:42:53.569Z,95194.00
2023-03-29T01:43:53.647Z,95192.00
2023-03-29T01:44:53.670Z,95194.00
2023-03-29T01:45:53.751Z,95194.00
2023-03-29T01:46:53.772Z,95192.00
2023-03-29T01:47:53.826Z,95192.00
2023-03-29T01:48:53.860Z,95192.00
2023-03-29T01:49:53.906Z,95190.00
2023-03-29T01:50:53.919Z,95186.00
2023-03-29T01:51:53.892Z,95183.00
2023-03-29T01:52:53.890Z,95185.00
2023-03-29T01:53:53.904Z,95185.00
2023-03-29T01:54:53.893Z,95183.00
2023-03-29T01:55:53.903Z,95181.00
2023-03-29T01:56:53.925Z,95181.00
2023-03-29T01:57:53.914Z,95183.00
2023-03-29T01:58:53.897Z,95181.00
2023-03-29T01:59:53.892Z,95181.00
2023-03-29T02:00:53.946Z,95186.00
2023-03-29T02:01:53.954Z,95186.00
2023-03-29T02:02:53.984Z,95186.00
2023-03-29T02:03:53.896Z,95190.00
2023-03-29T02:04:53.941Z,95188.00
2023-03-29T02:05:53.895Z,95190.00
2023-03-29T02:06:53.903Z,95192.00
2023-03-29T02:07:53.907Z,95186.00
2023-03-29T02:08:53.924Z,95183.00
2023-03-29T02:09:53.915Z,95181.00
2023-03-29T02:10:53.905Z,95177.00
2023-03-29T02:11:53.913Z,95177.00
2023-03-29T02:12:53.902Z,95177.00
2023-03-29T02:13:53.900Z,95171.00
2023-03-29T02:14:53.912Z,95163.00
2023-03-29T02:15:53.942Z,95149.00
2023-03-29T02:16:53.897Z,95145.00
2023-03-29T02:17:53.927Z,95143.00
2023-03-29T02:18:53.916Z,95141.00
2023-03-29T02:19:53.925Z,95141.00
2023-03-29T02:20:53.923Z,95143.00
2023-03-29T02:21:53.912Z,95143.00
2023-03-29T02:22:53.921Z,95145.00
2023-03-29T02:23:53.906Z,95155.00
2023-03-29T02:24:53.936Z,95169.00
2023-03-29T02:25:53.925Z,95175.00
2023-03-29T02:26:53.936Z,95177.00
2023-03-29T02:27:53.914Z,95173.00
2023-03-29T02:28:53.903Z,95177.00
2023-03-29T02:29:53.918Z,95175.00
2023-03-29T02:30:53.953Z,95175.00
2023-03-29T02:31:53.916Z,95175.00
2023-03-29T02:32:53.973Z,95173.00
2023-03-29T02:33:53.933Z,95171.00
2023-03-29T02:34:53.992Z,95171.00
2023-03-29T02:35:54.026Z,95173.00
2023-03-29T02:36:54.020Z,95169.00
2023-03-29T02:37:54.006Z,95165.00
2023-03-29T02:38:54.003Z,95155.00
2023-03-29T02:39:54.016Z,95149.00
2023-03-29T02:40:54.013Z,95147.00
2023-03-29T02:41:54.004Z,95143.00
2023-03-29T02:42:54.453Z,95139.00
2023-03-29T02:43:54.014Z,95137.00
2023-03-29T02:44:54.021Z,95137.00
2023-03-29T02:45:54.007Z,95137.00
2023-03-29T02:46:54.072Z,95141.00
2023-03-29T02:47:54.046Z,95139.00
2023-03-29T02:48:54.020Z,95132.00
2023-03-29T02:49:54.025Z,95133.00
2023-03-29T02:50:54.021Z,95133.00
2023-03-29T02:51:53.999Z,95128.00
2023-03-29T02:52:54.029Z,95128.00
2023-03-29T02:53:54.011Z,95126.00
2023-03-29T02:54:53.994Z,95124.00
2023-03-29T02:55:54.006Z,95126.00
2023-03-29T02:56:54.052Z,95124.00
2023-03-29T02:57:53.999Z,95126.00
2023-03-29T02:58:54.006Z,95128.00
2023-03-29T02:59:53.990Z,95126.00
2023-03-29T03:00:53.983Z,95124.00
2023-03-29T03:01:54.058Z,95124.00
2023-03-29T03:02:54.029Z,95122.00
2023-03-29T03:03:54.080Z,95122.00
2023-03-29T03:04:53.988Z,95122.00
2023-03-29T03:05:53.981Z,95120.00
2023-03-29T03:06:53.976Z,95120.00
2023-03-29T03:07:53.963Z,95124.00
2023-03-29T03:08:53.983Z,95122.00
2023-03-29T03:09:53.961Z,95124.00
2023-03-29T03:10:53.972Z,95120.00
2023-03-29T03:11:53.952Z,95124.00
2023-03-29T03:12:53.962Z,95128.00
2023-03-29T03:13:53.956Z,95126.00
2023-03-29T03:14:53.950Z,95128.00
2023-03-29T03:15:53.993Z,95126.00
2023-03-29T03:16:53.939Z,95128.00
2023-03-29T03:17:53.991Z,95128.00
2023-03-29T03:18:53.924Z,95132.00
2023-03-29T03:19:53.927Z,95135.00
2023-03-29T03:20:53.910Z,95139.00
2023-03-29T03:21:53.903Z,95141.00
2023-03-29T03:22:53.896Z,95145.00
2023-03-29T03:23:53.877Z,95147.00
2023-03-29T03:24:53.900Z,95155.00
2023-03-29T03:25:53.902Z,95175.00
2023-03-29T03:26:53.906Z,95177.00
2023-03-29T03:27:53.875Z,95186.00
2023-03-29T03:28:53.854Z,95186.00
2023-03-29T03:29:53.849Z,95185.00
2023-03-29T03:30:53.845Z,95186.00
2023-03-29T03:31:54.388Z,95185.00
2023-03-29T03:32:53.854Z,95181.00
2023-03-29T03:33:53.857Z,95177.00
2023-03-29T03:34:53.846Z,95177.00
2023-03-29T03:35:53.883Z,95177.00
2023-03-29T03:36:53.841Z,95177.00
2023-03-29T03:37:53.819Z,95175.00
2023-03-29T03:38:53.817Z,95173.00
2023-03-29T03:39:53.812Z,95173.00
2023-03-29T03:40:53.829Z,95169.00
2023-03-29T03:41:53.823Z,95175.00
2023-03-29T03:42:53.836Z,95171.00
2023-03-29T03:43:53.831Z,95171.00
2023-03-29T03:44:53.831Z,95169.00
2023-03-29T03:45:53.836Z,95155.00
2023-03-29T03:46:53.824Z,95163.00
2023-03-29T03:47:53.859Z,95153.00
2023-03-29T03:48:53.821Z,95153.00
2023-03-29T03:49:53.810Z,95147.00
2023-03-29T03:50:53.807Z,95145.00
2023-03-29T03:51:53.795Z,95147.00
2023-03-29T03:52:53.806Z,95145.00
2023-03-29T03:53:53.807Z,95143.00
2023-03-29T03:54:53.802Z,95143.00
2023-03-29T03:55:53.798Z,95141.00
2023-03-29T03:56:53.862Z,95139.00
2023-03-29T03:57:53.815Z,95141.00
2023-03-29T03:58:53.792Z,95141.00
2023-03-29T03:59:53.797Z,95139.00
2023-03-29T04:00:53.803Z,95137.00
2023-03-29T04:01:53.784Z,95135.00
2023-03-29T04:02:53.845Z,95133.00
2023-03-29T04:03:53.844Z,95130.00
2023-03-29T04:04:53.778Z,95130.00
2023-03-29T04:05:53.794Z,95128.00
2023-03-29T04:06:53.795Z,95124.00
2023-03-29T04:07:53.799Z,95124.00
2023-03-29T04:08:53.813Z,95126.00
2023-03-29T04:09:53.786Z,95126.00
2023-03-29T04:10:53.785Z,95124.00
2023-03-29T04:11:53.801Z,95124.00
2023-03-29T04:12:53.849Z,95122.00
2023-03-29T04:13:53.898Z,95122.00
2023-03-29T04:14:53.936Z,95122.00
2023-03-29T04:15:54.104Z,95122.00
2023-03-29T04:16:54.013Z,95120.00
2023-03-29T04:17:54.145Z,95120.00
2023-03-29T04:18:54.024Z,95122.00
2023-03-29T04:19:53.977Z,95122.00
2023-03-29T04:20:53.995Z,95122.00
2023-03-29T04:21:53.970Z,95122.00
2023-03-29T04:22:53.983Z,95124.00
2023-03-29T04:23:53.967Z,95122.00
2023-03-29T04:24:53.955Z,95120.00
2023-03-29T04:25:53.978Z,95118.00
2023-03-29T04:26:53.966Z,95116.00
2023-03-29T04:27:53.952Z,95116.00
2023-03-29T04:28:53.956Z,95112.00
2023-03-29T04:29:53.965Z,95114.00
2023-03-29T04:30:53.964Z,95114.00
2023-03-29T04:31:53.960Z,95112.00
2023-03-29T04:32:53.985Z,95112.00
2023-03-29T04:33:53.949Z,95110.00
2023-03-29T04:34:53.957Z,95110.00
2023-03-29T04:35:54.002Z,95108.00
2023-03-29T04:36:53.961Z,95104.00
2023-03-29T04:37:53.929Z,95100.00
2023-03-29T04:38:53.931Z,95096.00
2023-03-29T04:39:53.920Z,95094.00
2023-03-29T04:40:53.925Z,95096.00
2023-03-29T04:41:53.914Z,95096.00
2023-03-29T04:42:53.914Z,95094.00
2023-03-29T04:43:53.915Z,95094.00
2023-03-29T04:44:53.946Z,95092.00
2023-03-29T04:45:53.980Z,95092.00
2023-03-29T04:46:53.955Z,95096.00
2023-03-29T04:47:53.973Z,95100.00
2023-03-29T04:48:53.934Z,95104.00
2023-03-29T04:49:53.920Z,95104.00
2023-03-29T04:50:53.925Z,95104.00
2023-03-29T04:51:53.922Z,95104.00
2023-03-29T04:52:53.918Z,95104.00
2023-03-29T04:53:53.909Z,95104.00
2023-03-29T04:54:53.910Z,95096.00
2023-03-29T04:55:53.902Z,95094.00
2023-03-29T04:56:53.973Z,95092.00
2023-03-29T04:57:53.980Z,95092.00
2023-03-29T04:58:54.037Z,95090.00
2023-03-29T04:59:54.081Z,95088.00
2023-03-29T05:00:54.100Z,95092.00
2023-03-29T05:01:54.127Z,95090.00
2023-03-29T05:02:54.182Z,95090.00
2023-03-29T05:03:54.126Z,95086.00
2023-03-29T05:04:54.109Z,95086.00
2023-03-29T05:05:54.128Z,95088.00
2023-03-29T05:06:54.117Z,95092.00
2023-03-29T05:07:54.100Z,95092.00
2023-03-29T05:08:54.106Z,95092.00
2023-03-29T05:09:54.112Z,95094.00
2023-03-29T05:10:54.087Z,95094.00
2023-03-29T05:11:54.105Z,95094.00
2023-03-29T05:12:54.330Z,95085.00
2023-03-29T05:13:54.116Z,95081.00
2023-03-29T05:14:54.094Z,95077.00
2023-03-29T05:15:54.138Z,95073.00
2023-03-29T05:16:54.154Z,95069.00
2023-03-29T05:17:54.185Z,95075.00
2023-03-29T05:18:54.222Z,95073.00
2023-03-29T05:19:54.263Z,95071.00
2023-03-29T05:20:54.269Z,95067.00
2023-03-29T05:21:54.286Z,95067.00
2023-03-29T05:22:54.261Z,95069.00
2023-03-29T05:23:54.319Z,95069.00
2023-03-29T05:24:54.292Z,95075.00
2023-03-29T05:25:54.309Z,95073.00
2023-03-29T05:26:54.314Z,95081.00
2023-03-29T05:27:54.323Z,95085.00
2023-03-29T05:28:54.335Z,95079.00
2023-03-29T05:29:54.391Z,95083.00
2023-03-29T05:30:54.346Z,95079.00
2023-03-29T05:31:54.394Z,95083.00
2023-03-29T05:32:54.446Z,95086.00
2023-03-29T05:33:54.398Z,95081.00
2023-03-29T05:34:54.406Z,95079.00
2023-03-29T05:35:54.462Z,95075.00
2023-03-29T05:36:54.416Z,95073.00
2023-03-29T05:37:54.437Z,95075.00
2023-03-29T05:38:54.459Z,95073.00
2023-03-29T05:39:54.460Z,95071.00
2023-03-29T05:40:55.498Z,95067.00
2023-03-29T05:41:54.441Z,95069.00
2023-03-29T05:42:54.446Z,95071.00
2023-03-29T05:43:54.435Z,95073.00
2023-03-29T05:44:54.601Z,95073.00
2023-03-29T05:45:54.675Z,95065.00
2023-03-29T05:46:54.415Z,95057.00
2023-03-29T05:47:54.501Z,95055.00
2023-03-29T05:48:54.397Z,95067.00
2023-03-29T05:49:54.387Z,95075.00
2023-03-29T05:50:54.387Z,95081.00
2023-03-29T05:51:54.393Z,95081.00
2023-03-29T05:52:54.378Z,95077.00
2023-03-29T05:53:54.408Z,95083.00
2023-03-29T05:54:54.449Z,95075.00
2023-03-29T05:55:54.485Z,95077.00
2023-03-29T05:56:54.593Z,95077.00
2023-03-29T05:57:54.554Z,95077.00
2023-03-29T05:58:55.088Z,95081.00
2023-03-29T05:59:54.617Z,95083.00
2023-03-29T06:00:54.652Z,95083.00
2023-03-29T06:01:54.750Z,95085.00
2023-03-29T06:02:56.370Z,95085.00
2023-03-29T06:03:54.975Z,95085.00
2023-03-29T06:04:54.733Z,95081.00
2023-03-29T06:05:54.700Z,95079.00
2023-03-29T06:06:54.685Z,95077.00
2023-03-29T06:07:54.684Z,95081.00
2023-03-29T06:08:54.681Z,95085.00
2023-03-29T06:09:54.677Z,95088.00
2023-03-29T06:10:54.681Z,95083.00
2023-03-29T06:11:54.653Z,95088.00
2023-03-29T06:12:54.656Z,95085.00
2023-03-29T06:13:54.664Z,95085.00
2023-03-29T06:14:54.636Z,95086.00
2023-03-29T06:15:54.632Z,95086.00
2023-03-29T06:16:54.673Z,95088.00
2023-03-29T06:17:54.643Z,95090.00
2023-03-29T06:18:54.615Z,95090.00
2023-03-29T06:19:54.609Z,95090.00
2023-03-29T06:20:54.595Z,95090.00
2023-03-29T06:21:54.616Z,95092.00
2023-03-29T06:22:54.589Z,95096.00
2023-03-29T06:23:54.596Z,95094.00
2023-03-29T06:24:54.583Z,95096.00
2023-03-29T06:25:54.681Z,95096.00
2023-03-29T06:26:54.577Z,95100.00
2023-03-29T06:27:54.556Z,95102.00
2023-03-29T06:28:54.542Z,95102.00
2023-03-29T06:29:54.536Z,95106.00
2023-03-29T06:30:54.562Z,95100.00
2023-03-29T06:31:54.527Z,95094.00
2023-03-29T06:32:54.614Z,95092.00
2023-03-29T06:33:54.530Z,95094.00
2023-03-29T06:34:54.543Z,95098.00
2023-03-29T06:35:54.538Z,95098.00
2023-03-29T06:36:54.495Z,95102.00
2023-03-29T06:37:54.539Z,95100.00
2023-03-29T06:38:54.503Z,95102.00
2023-03-29T06:39:54.555Z,95106.00
2023-03-29T06:40:54.590Z,95104.00
2023-03-29T06:41:54.607Z,95104.00
2023-03-29T06:42:54.628Z,95106.00
2023-03-29T06:43:54.630Z,95106.00
2023-03-29T06:44:54.626Z,95106.00
2023-03-29T06:45:54.934Z,95108.00
2023-03-29T06:46:54.713Z,95110.00
2023-03-29T06:47:54.777Z,95114.00
2023-03-29T06:48:54.711Z,95106.00
2023-03-29T06:49:54.743Z,95118.00
2023-03-29T06:50:54.748Z,95114.00
2023-03-29T06:51:54.769Z,95114.00
2023-03-29T06:52:55.198Z,95110.00
2023-03-29T06:53:54.865Z,95110.00
2023-03-29T06:54:54.875Z,95114.00
2023-03-29T06:55:54.960Z,95110.00
2023-03-29T06:56:55.153Z,95106.00
2023-03-29T06:57:55.184Z,95108.00
2023-03-29T06:58:55.120Z,95110.00
2023-03-29T06:59:55.217Z,95110.00
2023-03-29T07:00:55.196Z,95112.00
2023-03-29T07:01:55.274Z,95106.00
2023-03-29T07:02:55.729Z,95112.00
2023-03-29T07:03:55.319Z,95106.00
2023-03-29T07:04:55.322Z,95102.00
2023-03-29T07:05:55.370Z,95102.00
2023-03-29T07:06:55.429Z,95100.00
2023-03-29T07:07:55.693Z,95102.00
2023-03-29T07:08:55.464Z,95104.00
2023-03-29T07:09:55.562Z,95106.00
2023-03-29T07:10:55.477Z,95110.00
2023-03-29T07:11:55.491Z,95106.00
2023-03-29T07:12:55.497Z,95108.00
2023-03-29T07:13:55.521Z,95110.00
2023-03-29T07:14:55.507Z,95114.00
2023-03-29T07:15:55.612Z,95116.00
2023-03-29T07:16:55.523Z,95126.00
2023-03-29T07:17:55.596Z,95128.00
2023-03-29T07:18:55.565Z,95126.00
2023-03-29T07:19:55.577Z,95124.00
2023-03-29T07:20:55.602Z,95120.00
2023-03-29T07:21:55.704Z,95122.00
2023-03-29T07:22:55.604Z,95124.00
2023-03-29T07:23:55.608Z,95124.00
2023-03-29T07:24:55.614Z,95122.00
2023-03-29T07:25:55.620Z,95116.00
2023-03-29T07:27:04.142Z,95112.00
2023-03-29T07:27:56.719Z,95108.00
2023-03-29T07:28:55.636Z,95106.00
2023-03-29T07:29:55.639Z,95104.00
2023-03-29T07:30:55.624Z,95104.00
2023-03-29T07:31:55.598Z,95108.00
2023-03-29T07:32:55.848Z,95110.00
2023-03-29T07:33:55.629Z,95110.00
2023-03-29T07:34:55.585Z,95112.00
2023-03-29T07:35:55.590Z,95112.00
2023-03-29T07:36:55.725Z,95108.00
2023-03-29T07:37:55.715Z,95112.00
2023-03-29T07:38:56.429Z,95118.00
2023-03-29T07:39:55.547Z,95116.00
2023-03-29T07:40:55.542Z,95114.00
2023-03-29T07:41:55.570Z,95114.00
2023-03-29T07:42:55.552Z,95110.00
2023-03-29T07:43:55.563Z,95108.00
2023-03-29T07:44:55.692Z,95104.00
2023-03-29T07:45:55.603Z,95118.00
2023-03-29T07:46:55.612Z,95120.00
2023-03-29T07:47:55.705Z,95124.00
2023-03-29T07:48:55.642Z,95124.00
2023-03-29T07:49:55.707Z,95122.00
2023-03-29T07:50:55.644Z,95122.00
2023-03-29T07:51:55.652Z,95122.00
2023-03-29T07:52:55.705Z,95122.00
2023-03-29T07:53:55.736Z,95122.00
2023-03-29T07:54:56.199Z,95126.00
2023-03-29T07:55:55.869Z,95130.00
2023-03-29T07:56:55.947Z,95133.00
2023-03-29T07:57:56.613Z,95130.00
2023-03-29T07:58:56.020Z,95130.00
2023-03-29T07:59:56.206Z,95132.00
2023-03-29T08:00:56.184Z,95132.00
2023-03-29T08:01:56.158Z,95126.00
2023-03-29T08:02:56.225Z,95124.00
2023-03-29T08:03:56.300Z,95122.00
2023-03-29T08:04:56.335Z,95126.00
2023-03-29T08:05:56.295Z,95124.00
2023-03-29T08:06:56.329Z,95114.00
2023-03-29T08:07:56.373Z,95124.00
2023-03-29T08:08:56.414Z,95128.00
2023-03-29T08:09:56.431Z,95122.00
2023-03-29T08:10:56.482Z,95124.00
2023-03-29T08:11:56.536Z,95120.00
2023-03-29T08:12:56.528Z,95122.00
2023-03-29T08:13:56.560Z,95116.00
2023-03-29T08:14:56.713Z,95112.00
2023-03-29T08:15:56.649Z,95110.00
2023-03-29T08:16:56.700Z,95112.00
2023-03-29T08:17:56.784Z,95114.00
2023-03-29T08:18:56.746Z,95116.00
2023-03-29T08:19:57.224Z,95114.00
2023-03-29T08:20:56.797Z,95112.00
2023-03-29T08:21:56.785Z,95114.00
2023-03-29T08:22:56.834Z,95114.00
2023-03-29T08:23:56.980Z,95114.00
2023-03-29T08:24:57.226Z,95112.00
2023-03-29T08:25:56.962Z,95114.00
2023-03-29T08:26:56.960Z,95112.00
2023-03-29T08:27:57.205Z,95114.00
2023-03-29T08:28:56.996Z,95124.00
2023-03-29T08:29:57.066Z,95128.00
2023-03-29T08:30:57.152Z,95133.00
2023-03-29T08:31:57.126Z,95133.00
2023-03-29T08:32:57.191Z,95133.00
2023-03-29T08:33:57.166Z,95133.00
2023-03-29T08:34:57.173Z,95137.00
2023-03-29T08:35:57.239Z,95139.00
2023-03-29T08:36:57.214Z,95139.00
2023-03-29T08:37:57.220Z,95141.00
2023-03-29T08:38:57.244Z,95139.00
2023-03-29T08:39:57.271Z,95137.00
2023-03-29T08:40:57.242Z,95143.00
2023-03-29T08:41:57.254Z,95143.00
2023-03-29T08:42:57.729Z,95145.00
2023-03-29T08:43:57.300Z,95141.00
2023-03-29T08:44:57.286Z,95141.00
2023-03-29T08:45:57.369Z,95145.00
2023-03-29T08:46:57.392Z,95141.00
2023-03-29T08:47:57.343Z,95145.00
2023-03-29T08:48:57.363Z,95147.00
2023-03-29T08:49:57.412Z,95155.00
2023-03-29T08:50:57.538Z,95149.00
2023-03-29T08:51:57.487Z,95145.00
2023-03-29T08:52:57.530Z,95143.00
2023-03-29T08:53:57.573Z,95141.00
2023-03-29T08:54:57.637Z,95141.00
2023-03-29T08:55:57.700Z,95139.00
2023-03-29T08:56:57.736Z,95141.00
2023-03-29T08:57:57.778Z,95139.00
2023-03-29T08:58:57.881Z,95139.00
2023-03-29T08:59:57.859Z,95141.00
2023-03-29T09:00:57.891Z,95135.00
2023-03-29T09:01:58.073Z,95137.00
2023-03-29T09:02:58.046Z,95139.00
2023-03-29T09:03:57.991Z,95141.00
2023-03-29T09:04:57.955Z,95137.00
2023-03-29T09:05:57.993Z,95137.00
2023-03-29T09:06:58.051Z,95135.00
2023-03-29T09:07:58.088Z,95133.00
2023-03-29T09:08:58.224Z,95132.00
2023-03-29T09:09:58.196Z,95132.00
2023-03-29T09:10:58.231Z,95133.00
2023-03-29T09:11:58.261Z,95139.00
2023-03-29T09:12:58.324Z,95141.00
2023-03-29T09:13:58.391Z,95143.00
2023-03-29T09:14:58.418Z,95147.00
2023-03-29T09:15:58.477Z,95149.00
2023-03-29T09:16:58.533Z,95147.00
2023-03-29T09:17:58.806Z,95147.00
2023-03-29T09:18:58.656Z,95145.00
2023-03-29T09:19:58.658Z,95145.00
2023-03-29T09:20:58.755Z,95147.00
2023-03-29T09:21:58.754Z,95141.00
2023-03-29T09:22:59.233Z,95135.00
2023-03-29T09:23:58.817Z,95133.00
2023-03-29T09:24:58.869Z,95135.00
2023-03-29T09:25:58.883Z,95133.00
2023-03-29T09:26:58.931Z,95133.00
2023-03-29T09:27:59.237Z,95130.00
2023-03-29T09:28:58.967Z,95132.00
2023-03-29T09:29:59.001Z,95130.00
2023-03-29T09:30:59.035Z,95130.00
2023-03-29T09:31:59.095Z,95126.00
2023-03-29T09:32:59.280Z,95126.00
2023-03-29T09:33:59.244Z,95124.00
2023-03-29T09:34:59.167Z,95126.00
2023-03-29T09:35:59.313Z,95122.00
2023-03-29T09:36:59.339Z,95126.00
2023-03-29T09:37:59.359Z,95128.00
2023-03-29T09:38:59.419Z,95126.00
2023-03-29T09:39:59.451Z,95124.00
2023-03-29T09:40:59.518Z,95124.00
2023-03-29T09:41:59.580Z,95122.00
2023-03-29T09:42:59.593Z,95130.00
2023-03-29T09:43:59.617Z,95133.00
2023-03-29T09:44:59.665Z,95133.00
2023-03-29T09:45:59.721Z,95135.00
2023-03-29T09:46:59.676Z,95132.00
2023-03-29T09:47:59.800Z,95132.00
2023-03-29T09:49:00.238Z,95128.00
2023-03-29T09:49:59.812Z,95124.00
2023-03-29T09:50:59.973Z,95120.00
2023-03-29T09:51:59.917Z,95120.00
2023-03-29T09:52:59.958Z,95118.00
2023-03-29T09:53:59.960Z,95124.00
2023-03-29T09:54:59.974Z,95122.00
2023-03-29T09:56:00.032Z,95120.00
2023-03-29T09:57:00.078Z,95118.00
2023-03-29T09:58:00.056Z,95118.00
2023-03-29T09:59:00.048Z,95118.00
2023-03-29T10:00:00.052Z,95118.00
2023-03-29T10:01:00.305Z,95120.00
2023-03-29T10:02:00.110Z,95116.00
2023-03-29T10:03:00.536Z,95114.00
2023-03-29T10:04:00.305Z,95114.00
2023-03-29T10:05:00.153Z,95116.00
2023-03-29T10:06:00.145Z,95110.00
2023-03-29T10:07:00.172Z,95112.00
2023-03-29T10:08:00.159Z,95110.00
2023-03-29T10:09:00.186Z,95112.00
2023-03-29T10:10:00.237Z,95116.00
2023-03-29T10:11:00.417Z,95116.00
2023-03-29T10:12:00.185Z,95120.00
2023-03-29T10:13:00.176Z,95114.00
2023-03-29T10:14:00.166Z,95110.00
2023-03-29T10:15:00.247Z,95114.00
2023-03-29T10:16:00.216Z,95114.00
2023-03-29T10:17:00.201Z,95118.00
2023-03-29T10:18:00.210Z,95116.00
2023-03-29T10:19:00.159Z,95118.00
2023-03-29T10:20:02.136Z,95116.00
2023-03-29T10:21:00.277Z,95110.00
2023-03-29T10:22:00.152Z,95112.00
2023-03-29T10:23:00.163Z,95118.00
2023-03-29T10:24:00.155Z,95124.00
2023-03-29T10:25:00.320Z,95124.00
2023-03-29T10:26:00.122Z,95122.00
2023-03-29T10:27:00.222Z,95126.00
2023-03-29T10:28:00.117Z,95137.00
2023-03-29T10:29:00.119Z,95135.00
2023-03-29T10:30:00.160Z,95135.00
2023-03-29T10:31:00.206Z,95132.00
2023-03-29T10:32:00.137Z,95126.00
2023-03-29T10:33:00.112Z,95126.00
2023-03-29T10:34:00.054Z,95128.00
2023-03-29T10:35:00.157Z,95120.00
2023-03-29T10:36:00.063Z,95120.00
2023-03-29T10:37:00.042Z,95122.00
2023-03-29T10:38:00.037Z,95120.00
2023-03-29T10:39:00.055Z,95120.00
2023-03-29T10:40:00.091Z,95120.00
2023-03-29T10:41:00.062Z,95120.00
2023-03-29T10:42:00.025Z,95122.00
2023-03-29T10:43:00.007Z,95124.00
2023-03-29T10:43:59.999Z,95120.00
2023-03-29T10:45:00.029Z,95118.00
2023-03-29T10:45:59.988Z,95118.00
2023-03-29T10:46:59.968Z,95118.00
2023-03-29T10:48:00.009Z,95114.00
2023-03-29T10:48:59.993Z,95112.00
2023-03-29T10:49:59.948Z,95112.00
2023-03-29T10:51:00.126Z,95112.00
2023-03-29T10:51:59.961Z,95110.00
2023-03-29T10:52:59.931Z,95110.00
2023-03-29T10:53:59.928Z,95108.00
2023-03-29T10:54:59.986Z,95112.00
2023-03-29T10:55:59.934Z,95114.00
2023-03-29T10:56:59.961Z,95114.00
2023-03-29T10:57:59.981Z,95112.00
2023-03-29T10:59:00.036Z,95112.00
2023-03-29T11:00:00.258Z,95104.00
2023-03-29T11:01:00.320Z,95102.00
2023-03-29T11:02:00.323Z,95098.00
2023-03-29T11:03:00.426Z,95098.00
2023-03-29T11:04:00.491Z,95100.00
2023-03-29T11:05:00.757Z,95094.00
2023-03-29T11:06:00.410Z,95086.00
2023-03-29T11:07:00.494Z,95086.00
2023-03-29T11:08:00.501Z,95088.00
2023-03-29T11:09:00.572Z,95088.00
2023-03-29T11:10:00.641Z,95086.00
2023-03-29T11:11:00.763Z,95083.00
2023-03-29T11:12:14.406Z,95081.00
2023-03-29T11:13:01.709Z,95079.00
2023-03-29T11:14:00.710Z,95073.00
2023-03-29T11:15:00.781Z,95069.00
2023-03-29T11:16:00.768Z,95065.00
2023-03-29T11:17:00.691Z,95067.00
2023-03-29T11:18:00.747Z,95075.00
2023-03-29T11:19:00.670Z,95073.00
2023-03-29T11:20:02.386Z,95077.00
2023-03-29T11:21:00.875Z,95069.00
2023-03-29T11:22:00.660Z,95067.00
2023-03-29T11:23:00.644Z,95073.00
2023-03-29T11:24:00.633Z,95067.00
2023-03-29T11:25:00.631Z,95065.00
2023-03-29T11:26:00.655Z,95069.00
2023-03-29T11:27:00.617Z,95067.00
2023-03-29T11:28:00.617Z,95065.00
2023-03-29T11:29:00.598Z,95071.00
2023-03-29T11:30:00.620Z,95073.00
2023-03-29T11:31:00.898Z,95073.00
2023-03-29T11:32:00.644Z,95073.00
2023-03-29T11:33:00.651Z,95071.00
2023-03-29T11:34:00.578Z,95065.00
2023-03-29T11:35:00.569Z,95063.00
2023-03-29T11:36:00.662Z,95063.00
2023-03-29T11:37:00.585Z,95065.00
2023-03-29T11:38:00.555Z,95061.00
2023-03-29T11:39:00.570Z,95061.00
2023-03-29T11:40:00.556Z,95059.00
2023-03-29T11:41:00.709Z,95063.00
2023-03-29T11:42:00.538Z,95061.00
2023-03-29T11:43:00.519Z,95061.00
2023-03-29T11:44:00.545Z,95059.00
2023-03-29T11:45:00.523Z,95063.00